Time;durP1;ratioP1;P1;durP2;ratioP2;P2;SDS_P1;SDS_P2;PMS_P1;PMS_P2;Temp;Humidity;BMP_temperature;BMP_pressure;BME280_temperature;BME280_humidity;BME280_pressure;Samples;Min_cycle;Max_cycle;Signal;HPM_P1;HPM_P2
2023/09/19 00:00:01;;;;;;;1.98;1.17;;;;;14.90;93843.00;;;;7396471;19;20125;-77
2023/09/19 00:02:29;;;;;;;1.80;1.30;;;;;15.00;93838.00;;;;7395806;19;20208;-76
2023/09/19 00:05:05;;;;;;;1.45;1.00;;;;;14.90;93847.00;;;;7400046;19;20156;-76
2023/09/19 00:07:33;;;;;;;1.92;0.95;;;;;14.80;93854.00;;;;7398989;19;20159;-75
2023/09/19 00:10:04;;;;;;;2.03;1.20;;;;;14.90;93850.00;;;;7398439;19;20125;-75
2023/09/19 00:12:43;;;;;;;3.13;1.20;;;;;14.80;93847.00;;;;7400236;19;20133;-77
2023/09/19 00:15:12;;;;;;;3.83;1.08;;;;;14.70;93848.00;;;;7400037;19;20142;-75
2023/09/19 00:17:47;;;;;;;1.90;1.30;;;;;14.90;93843.00;;;;7397704;19;20132;-78
2023/09/19 00:20:23;;;;;;;1.48;1.30;;;;;15.00;93845.00;;;;7398488;19;20144;-77
2023/09/19 00:23:02;;;;;;;3.53;1.35;;;;;15.00;93850.00;;;;7398863;19;20481;-73
2023/09/19 00:25:40;;;;;;;2.95;1.30;;;;;15.00;93853.00;;;;7397891;19;20143;-74
2023/09/19 00:28:07;;;;;;;1.77;1.10;;;;;15.10;93844.00;;;;7398436;19;20616;-74
2023/09/19 00:30:49;;;;;;;3.80;1.25;;;;;15.00;93855.00;;;;7387675;19;20160;-74
2023/09/19 00:33:24;;;;;;;3.08;1.40;;;;;15.00;93858.00;;;;7393015;19;20228;-74
2023/09/19 00:36:04;;;;;;;1.77;1.10;;;;;15.10;93850.00;;;;7399058;19;20636;-75
2023/09/19 00:38:39;;;;;;;2.33;1.20;;;;;15.10;93851.00;;;;7397677;19;20183;-75
2023/09/19 00:41:21;;;;;;;1.10;0.80;;;;;15.00;93850.00;;;;7395548;19;20157;-75
2023/09/19 00:43:53;;;;;;;1.60;1.08;;;;;15.10;93851.00;;;;7398839;19;20164;-74
2023/09/19 00:46:27;;;;;;;4.57;1.40;;;;;14.90;93846.00;;;;7396039;19;20152;-72
2023/09/19 00:49:02;;;;;;;1.48;1.17;;;;;15.00;93852.00;;;;7395123;19;20149;-72
2023/09/19 00:51:37;;;;;;;2.78;1.20;;;;;15.00;93843.00;;;;7395857;19;20488;-75
2023/09/19 00:54:05;;;;;;;2.13;1.20;;;;;15.10;93854.00;;;;7396314;19;20145;-75
2023/09/19 00:56:40;;;;;;;3.88;1.30;;;;;14.90;93846.00;;;;7398324;19;20484;-73
2023/09/19 00:59:14;;;;;;;1.77;1.27;;;;;14.90;93858.00;;;;7397057;19;20167;-73
2023/09/19 01:01:56;;;;;;;2.78;1.42;;;;;15.00;93872.00;;;;7392377;19;20176;-78
2023/09/19 01:04:31;;;;;;;2.67;1.30;;;;;15.10;93874.00;;;;7396172;19;20125;-80
2023/09/19 01:07:08;;;;;;;3.08;1.40;;;;;15.10;93878.00;;;;7397544;19;20144;-81
2023/09/19 01:09:42;;;;;;;1.45;1.23;;;;;15.10;93873.00;;;;7397359;19;20145;-81
2023/09/19 01:12:28;;;;;;;2.22;1.35;;;;;15.00;93875.00;;;;7394883;19;20148;-81
2023/09/19 01:15:19;;;;;;;3.35;1.50;;;;;15.00;93874.00;;;;7397479;19;20145;-81
2023/09/19 01:18:23;;;;;;;1.88;1.00;;;;;15.00;93870.00;;;;7398910;19;20136;-81
2023/09/19 01:21:18;;;;;;;2.17;1.33;;;;;15.00;93885.00;;;;7395780;19;20141;-81
2023/09/19 01:24:24;;;;;;;1.60;1.20;;;;;14.80;93882.00;;;;7396063;19;20129;-81
2023/09/19 01:27:31;;;;;;;2.97;1.60;;;;;14.90;93885.00;;;;7399224;19;20192;-81
2023/09/19 01:30:14;;;;;;;2.45;1.38;;;;;14.70;93876.00;;;;7395296;19;20140;-81
2023/09/19 01:32:52;;;;;;;5.13;1.40;;;;;14.90;93881.00;;;;7393833;19;20129;-83
2023/09/19 01:35:20;;;;;;;1.40;1.20;;;;;14.80;93882.00;;;;7396449;19;20493;-80
2023/09/19 01:37:50;;;;;;;2.33;1.50;;;;;14.80;93889.00;;;;7398697;19;20144;-83
2023/09/19 01:40:25;;;;;;;2.63;1.70;;;;;14.80;93885.00;;;;7396145;19;20615;-83
2023/09/19 01:43:07;;;;;;;6.50;1.40;;;;;14.80;93898.00;;;;7399404;19;20164;-83
2023/09/19 01:46:00;;;;;;;2.72;1.20;;;;;14.70;93900.00;;;;7400157;19;20173;-84
2023/09/19 01:48:42;;;;;;;1.58;1.27;;;;;14.70;93905.00;;;;7402797;19;20139;-81
2023/09/19 01:51:12;;;;;;;2.50;1.33;;;;;14.90;93902.00;;;;7398818;19;20599;-83
2023/09/19 01:54:02;;;;;;;3.30;1.27;;;;;14.80;93898.00;;;;7397000;19;20147;-84
2023/09/19 01:57:05;;;;;;;4.65;1.65;;;;;14.90;93906.00;;;;7393865;19;20252;-84
2023/09/19 01:59:43;;;;;;;2.75;1.40;;;;;15.00;93910.00;;;;7397812;19;20223;-78
2023/09/19 02:02:32;;;;;;;2.47;1.70;;;;;15.10;93913.00;;;;7397970;19;20160;-81
2023/09/19 02:05:04;;;;;;;3.17;1.50;;;;;14.90;93908.00;;;;7399252;19;20168;-79
2023/09/19 02:07:40;;;;;;;2.20;1.17;;;;;15.10;93909.00;;;;7396628;19;20156;-80
2023/09/19 02:10:11;;;;;;;1.40;1.30;;;;;15.10;93909.00;;;;7398545;19;20640;-80
2023/09/19 02:12:46;;;;;;;2.88;1.48;;;;;15.10;93903.00;;;;7396899;19;20144;-77
2023/09/19 02:15:16;;;;;;;2.45;1.25;;;;;15.10;93905.00;;;;7395137;19;20136;-78
2023/09/19 02:17:51;;;;;;;2.40;1.48;;;;;15.20;93906.00;;;;7393269;19;20155;-78
2023/09/19 02:20:20;;;;;;;4.15;1.40;;;;;15.00;93910.00;;;;7394655;19;20140;-78
2023/09/19 02:22:55;;;;;;;4.30;1.40;;;;;15.10;93908.00;;;;7393061;19;20151;-77
2023/09/19 02:25:30;;;;;;;1.17;1.05;;;;;15.10;93922.00;;;;7394164;19;20145;-77
2023/09/19 02:28:09;;;;;;;2.97;1.45;;;;;15.20;93916.00;;;;7390683;19;20147;-78
2023/09/19 02:30:36;;;;;;;3.97;1.40;;;;;15.20;93922.00;;;;7389772;19;20125;-77
2023/09/19 02:33:11;;;;;;;1.80;1.40;;;;;15.00;93919.00;;;;7391985;19;20164;-78
2023/09/19 02:35:47;;;;;;;2.08;1.30;;;;;15.10;93919.00;;;;7395070;19;20117;-78
2023/09/19 02:38:24;;;;;;;2.00;1.50;;;;;15.10;93922.00;;;;7393128;19;20151;-77
2023/09/19 02:41:01;;;;;;;2.67;1.20;;;;;15.10;93931.00;;;;7394651;19;20149;-78
2023/09/19 02:43:35;;;;;;;1.67;1.30;;;;;15.10;93923.00;;;;7394321;19;20632;-78
2023/09/19 02:46:03;;;;;;;1.90;1.33;;;;;15.30;93930.00;;;;7393882;19;20652;-78
2023/09/19 02:48:38;;;;;;;1.30;1.00;;;;;15.30;93929.00;;;;7392410;19;20223;-78
2023/09/19 02:51:06;;;;;;;5.68;1.35;;;;;15.30;93922.00;;;;7394683;19;20497;-78
2023/09/19 02:53:42;;;;;;;3.50;1.60;;;;;15.40;93925.00;;;;7393852;19;20593;-78
2023/09/19 02:56:16;;;;;;;1.23;1.10;;;;;15.40;93923.00;;;;7394450;19;20602;-77
2023/09/19 02:58:44;;;;;;;2.20;1.10;;;;;15.20;93920.00;;;;7395268;19;20507;-77
2023/09/19 03:01:20;;;;;;;3.25;1.33;;;;;15.20;93928.00;;;;7393026;19;20593;-77
2023/09/19 03:04:02;;;;;;;1.75;1.33;;;;;15.30;93932.00;;;;7391734;19;20511;-78
2023/09/19 03:06:30;;;;;;;1.17;1.08;;;;;15.40;93937.00;;;;7392957;19;20156;-77
2023/09/19 03:09:12;;;;;;;3.38;1.30;;;;;15.30;93928.00;;;;7394050;19;20140;-77
2023/09/19 03:11:42;;;;;;;1.90;1.30;;;;;15.20;93934.00;;;;7393362;19;20155;-77
2023/09/19 03:14:17;;;;;;;2.67;1.20;;;;;15.20;93946.00;;;;7393972;19;20129;-78
2023/09/19 03:16:44;;;;;;;1.33;1.02;;;;;15.30;93944.00;;;;7388227;19;20125;-77
2023/09/19 03:19:20;;;;;;;3.72;1.13;;;;;15.20;93945.00;;;;7392470;19;20132;-77
2023/09/19 03:21:50;;;;;;;8.52;1.63;;;;;15.20;93951.00;;;;7392705;19;20129;-78
2023/09/19 03:24:24;;;;;;;3.22;1.30;;;;;15.30;93948.00;;;;7393958;19;20232;-77
2023/09/19 03:26:58;;;;;;;1.30;1.20;;;;;15.30;93959.00;;;;7391984;19;20495;-78
2023/09/19 03:29:32;;;;;;;1.50;1.20;;;;;15.20;93943.00;;;;7396951;19;20132;-77
2023/09/19 03:32:06;;;;;;;2.78;1.48;;;;;15.20;93944.00;;;;7399862;19;20136;-78
2023/09/19 03:34:43;;;;;;;3.15;1.48;;;;;15.10;93948.00;;;;7400015;19;20140;-78
2023/09/19 03:37:19;;;;;;;2.45;1.50;;;;;15.20;93951.00;;;;7399058;19;20157;-78
2023/09/19 03:39:48;;;;;;;3.60;1.40;;;;;15.10;93955.00;;;;7400846;19;20132;-78
2023/09/19 03:42:26;;;;;;;2.05;1.35;;;;;15.20;93950.00;;;;7399487;19;20479;-78
2023/09/19 03:45:04;;;;;;;1.85;1.30;;;;;15.10;93948.00;;;;7399332;19;20675;-78
2023/09/19 03:47:40;;;;;;;1.77;1.33;;;;;15.20;93942.00;;;;7399514;19;20210;-78
2023/09/19 03:50:17;;;;;;;2.20;1.23;;;;;15.10;93936.00;;;;7400753;19;20135;-78
2023/09/19 03:52:57;;;;;;;1.98;1.13;;;;;15.10;93946.00;;;;7398830;19;20132;-78
2023/09/19 03:55:24;;;;;;;2.88;1.48;;;;;15.10;93944.00;;;;7398206;19;20117;-78
2023/09/19 03:57:58;;;;;;;2.38;1.40;;;;;15.00;93943.00;;;;7398837;19;20164;-78
2023/09/19 04:00:27;;;;;;;3.88;1.25;;;;;15.00;93937.00;;;;7398994;19;20607;-78
2023/09/19 04:02:56;;;;;;;1.98;1.55;;;;;15.10;93944.00;;;;7397066;19;20199;-78
2023/09/19 04:05:41;;;;;;;4.03;1.40;;;;;15.20;93935.00;;;;7399972;19;20736;-77
2023/09/19 04:08:18;;;;;;;2.72;1.45;;;;;15.10;93938.00;;;;7399763;19;20129;-79
2023/09/19 04:10:52;;;;;;;2.58;1.38;;;;;15.10;93936.00;;;;7397472;19;20140;-78
2023/09/19 04:13:28;;;;;;;2.88;1.88;;;;;15.00;93943.00;;;;7399391;19;20148;-78
2023/09/19 04:16:06;;;;;;;1.58;1.10;;;;;15.00;93952.00;;;;7396360;19;20147;-79
2023/09/19 04:18:41;;;;;;;1.38;1.00;;;;;14.70;93955.00;;;;7393428;19;20128;-81
2023/09/19 04:21:15;;;;;;;1.40;1.20;;;;;14.30;93973.00;;;;7396038;19;20140;-85
2023/09/19 04:23:47;;;;;;;1.33;1.23;;;;;14.10;93965.00;;;;7395755;19;20129;-85
2023/09/19 04:26:25;;;;;;;5.30;1.23;;;;;13.90;93970.00;;;;7398639;19;20598;-85
2023/09/19 04:28:53;;;;;;;3.08;1.20;;;;;13.80;93975.00;;;;7393966;19;20172;-84
2023/09/19 04:31:30;;;;;;;1.95;1.50;;;;;13.80;93980.00;;;;7395727;19;20140;-83
2023/09/19 04:33:59;;;;;;;1.98;1.58;;;;;13.80;93984.00;;;;7396993;19;20149;-87
2023/09/19 04:36:36;;;;;;;2.03;1.45;;;;;13.80;93978.00;;;;7398577;19;20154;-86
2023/09/19 04:39:10;;;;;;;2.38;1.55;;;;;13.80;93979.00;;;;7398915;19;20145;-88
2023/09/19 04:41:47;;;;;;;2.45;1.50;;;;;13.80;93977.00;;;;7397724;19;20125;-86
2023/09/19 04:44:18;;;;;;;1.90;1.70;;;;;13.80;93982.00;;;;7399533;19;20599;-84
2023/09/19 04:46:52;;;;;;;2.35;1.40;;;;;13.80;93981.00;;;;7402046;19;20145;-83
2023/09/19 04:49:20;;;;;;;3.15;1.70;;;;;13.80;93989.00;;;;7401591;19;20150;-84
2023/09/19 04:51:55;;;;;;;2.08;1.58;;;;;13.70;94001.00;;;;7399190;19;20144;-86
2023/09/19 04:54:23;;;;;;;2.17;1.65;;;;;13.70;94009.00;;;;7398498;19;20136;-87
2023/09/19 04:56:59;;;;;;;1.85;1.13;;;;;13.60;94009.00;;;;7394565;19;20219;-83
2023/09/19 04:59:33;;;;;;;3.88;1.38;;;;;13.30;93997.00;;;;7395609;19;20487;-87
2023/09/19 05:02:09;;;;;;;2.67;1.30;;;;;13.20;94006.00;;;;7397679;19;20164;-84
2023/09/19 05:04:53;;;;;;;5.20;1.50;;;;;13.10;94019.00;;;;7398826;19;20265;-88
2023/09/19 05:07:27;;;;;;;1.63;1.20;;;;;13.00;94026.00;;;;7399020;19;20153;-89
2023/09/19 05:10:05;;;;;;;1.48;1.20;;;;;12.90;94019.00;;;;7400024;19;20144;-85
2023/09/19 05:12:40;;;;;;;1.50;1.40;;;;;13.00;94025.00;;;;7398030;19;20137;-86
2023/09/19 05:15:16;;;;;;;2.97;1.50;;;;;12.90;94020.00;;;;7373254;19;20152;-84
2023/09/19 05:17:51;;;;;;;2.50;1.50;;;;;12.90;94018.00;;;;7283644;19;2005557;-83
2023/09/19 05:20:29;;;;;;;1.35;1.15;;;;;12.90;94023.00;;;;7383597;19;20623;-81
2023/09/19 05:23:11;;;;;;;3.55;1.60;;;;;12.80;94032.00;;;;7383509;19;20232;-85
2023/09/19 05:25:40;;;;;;;2.72;1.23;;;;;12.70;94033.00;;;;7384849;19;20140;-81
2023/09/19 05:28:15;;;;;;;2.05;1.55;;;;;12.60;94040.00;;;;7384326;19;20144;-85
2023/09/19 05:30:43;;;;;;;1.65;1.40;;;;;12.60;94048.00;;;;7383397;19;20148;-88
2023/09/19 05:33:18;;;;;;;1.73;1.40;;;;;12.70;94047.00;;;;7386601;19;20120;-84
2023/09/19 05:35:53;;;;;;;1.98;1.50;;;;;12.70;94045.00;;;;7387609;19;20141;-85
2023/09/19 05:38:27;;;;;;;2.20;1.65;;;;;12.70;94048.00;;;;7387051;19;20165;-84
2023/09/19 05:40:56;;;;;;;3.85;1.90;;;;;12.70;94051.00;;;;7383806;19;20211;-81
2023/09/19 05:43:24;;;;;;;2.70;2.28;;;;;12.60;94049.00;;;;7384726;19;20124;-82
2023/09/19 05:46:00;;;;;;;6.22;2.55;;;;;12.60;94054.00;;;;7384531;19;20132;-84
2023/09/19 05:48:28;;;;;;;4.72;2.53;;;;;12.50;94046.00;;;;7385948;19;20238;-83
2023/09/19 05:51:02;;;;;;;6.75;3.15;;;;;12.60;94062.00;;;;7384444;19;20205;-81
2023/09/19 05:53:37;;;;;;;5.43;3.42;;;;;12.60;94055.00;;;;7387932;19;20487;-81
2023/09/19 05:56:05;;;;;;;5.30;3.58;;;;;12.60;94052.00;;;;7384611;19;20153;-82
2023/09/19 05:58:42;;;;;;;8.55;3.85;;;;;12.50;94056.00;;;;7388884;19;20180;-86
2023/09/19 06:01:18;;;;;;;7.28;3.05;;;;;12.40;94044.00;;;;7390384;19;20133;-80
2023/09/19 06:03:52;;;;;;;7.78;3.15;;;;;12.50;94067.00;;;;7387101;19;20180;-81
2023/09/19 06:06:27;;;;;;;7.13;3.17;;;;;12.50;94064.00;;;;7387497;19;20152;-82
2023/09/19 06:09:05;;;;;;;7.05;3.60;;;;;12.50;94053.00;;;;7388931;19;20139;-84
2023/09/19 06:11:34;;;;;;;15.60;3.45;;;;;12.60;94053.00;;;;7387900;19;20137;-81
2023/09/19 06:14:12;;;;;;;4.82;3.28;;;;;12.60;94057.00;;;;7386723;19;20140;-82
2023/09/19 06:16:41;;;;;;;5.70;3.15;;;;;12.70;94059.00;;;;7386222;19;20660;-78
2023/09/19 06:19:17;;;;;;;6.00;3.47;;;;;12.80;94063.00;;;;7388726;19;20772;-79
2023/09/19 06:21:46;;;;;;;6.47;3.17;;;;;12.80;94068.00;;;;7387361;19;20147;-81
2023/09/19 06:24:23;;;;;;;7.35;3.17;;;;;12.80;94064.00;;;;7388906;19;20136;-81
2023/09/19 06:26:52;;;;;;;4.10;3.05;;;;;13.00;94057.00;;;;7388500;19;20159;-82
2023/09/19 06:29:26;;;;;;;5.30;3.03;;;;;13.10;94065.00;;;;7387872;19;20148;-87
2023/09/19 06:31:56;;;;;;;4.50;2.60;;;;;13.10;94059.00;;;;7380490;19;20592;-81
2023/09/19 06:34:31;;;;;;;7.25;2.70;;;;;13.20;94074.00;;;;7387674;19;20647;-82
2023/09/19 06:37:06;;;;;;;4.25;2.70;;;;;13.10;94080.00;;;;7384949;19;20186;-85
2023/09/19 06:39:51;;;;;;;5.05;2.95;;;;;13.10;94073.00;;;;7382842;19;20149;-82
2023/09/19 06:42:19;;;;;;;4.22;2.67;;;;;13.10;94076.00;;;;7385784;19;20141;-84
2023/09/19 06:44:54;;;;;;;6.05;2.60;;;;;13.30;94076.00;;;;7384627;19;20157;-80
2023/09/19 06:47:25;;;;;;;6.63;2.40;;;;;13.20;94072.00;;;;7384578;19;20144;-86
2023/09/19 06:50:05;;;;;;;6.28;2.28;;;;;13.30;94075.00;;;;7385768;19;20149;-81
2023/09/19 06:52:35;;;;;;;4.75;2.40;;;;;13.50;94070.00;;;;7385232;19;20141;-78
2023/09/19 06:55:16;;;;;;;2.53;2.30;;;;;13.60;94078.00;;;;7378157;19;20161;-78
2023/09/19 06:57:51;;;;;;;5.20;2.25;;;;;13.50;94090.00;;;;7378427;19;20149;-77
2023/09/19 07:00:36;;;;;;;2.45;2.10;;;;;13.50;94095.00;;;;7378352;19;20160;-80
2023/09/19 07:03:21;;;;;;;3.60;2.00;;;;;13.60;94102.00;;;;7377958;19;20218;-78
2023/09/19 07:05:49;;;;;;;3.22;2.35;;;;;13.70;94102.00;;;;7386387;19;20145;-77
2023/09/19 07:08:24;;;;;;;3.80;2.03;;;;;13.70;94107.00;;;;7387177;19;20576;-78
2023/09/19 07:10:59;;;;;;;4.72;2.25;;;;;13.80;94112.00;;;;7387148;19;20164;-78
2023/09/19 07:13:35;;;;;;;2.65;1.98;;;;;13.70;94114.00;;;;7381128;19;20487;-78
2023/09/19 07:16:27;;;;;;;5.55;1.92;;;;;13.70;94101.00;;;;7384180;19;20208;-77
2023/09/19 07:19:03;;;;;;;5.40;2.08;;;;;13.70;94119.00;;;;7383253;19;20187;-77
2023/09/19 07:21:38;;;;;;;5.22;1.90;;;;;13.80;94113.00;;;;7380591;19;20140;-79
2023/09/19 07:24:08;;;;;;;2.55;1.85;;;;;13.80;94109.00;;;;7385630;19;20510;-78
2023/09/19 07:26:45;;;;;;;2.95;1.90;;;;;13.80;94112.00;;;;7383961;19;20211;-78
2023/09/19 07:29:13;;;;;;;3.30;1.80;;;;;13.80;94122.00;;;;7378689;19;20616;-78
2023/09/19 07:31:49;;;;;;;5.72;1.80;;;;;13.80;94124.00;;;;7384690;19;20653;-80
2023/09/19 07:34:19;;;;;;;2.95;1.60;;;;;13.80;94124.00;;;;7383212;19;20155;-79
2023/09/19 07:36:53;;;;;;;1.75;1.50;;;;;13.90;94123.00;;;;7382416;19;20254;-78
2023/09/19 07:39:22;;;;;;;1.83;1.60;;;;;14.00;94134.00;;;;7382265;19;20148;-79
2023/09/19 07:41:57;;;;;;;3.13;1.60;;;;;13.90;94122.00;;;;7384403;19;20132;-78
2023/09/19 07:44:25;;;;;;;2.25;1.65;;;;;14.10;94126.00;;;;7384074;19;20177;-77
2023/09/19 07:47:01;;;;;;;1.98;1.42;;;;;14.10;94135.00;;;;7383232;19;20140;-79
2023/09/19 07:49:29;;;;;;;3.92;1.70;;;;;14.40;94139.00;;;;7383175;19;20165;-77
2023/09/19 07:51:59;;;;;;;2.75;1.33;;;;;14.40;94142.00;;;;7384324;19;20468;-78
2023/09/19 07:54:38;;;;;;;1.67;1.58;;;;;14.40;94135.00;;;;7384967;19;20157;-77
2023/09/19 07:57:06;;;;;;;2.40;1.55;;;;;14.30;94143.00;;;;7382877;19;20133;-76
2023/09/19 07:59:41;;;;;;;6.30;1.73;;;;;14.60;94133.00;;;;7383365;19;20159;-77
2023/09/19 08:02:15;;;;;;;1.85;1.52;;;;;14.90;94132.00;;;;7382038;19;20219;-77
2023/09/19 08:04:57;;;;;;;2.17;1.20;;;;;15.50;94133.00;;;;7381754;19;20180;-76
2023/09/19 08:07:25;;;;;;;1.83;1.30;;;;;15.90;94121.00;;;;7383913;19;20136;-77
2023/09/19 08:09:59;;;;;;;2.13;1.55;;;;;16.20;94139.00;;;;7382913;19;20195;-77
2023/09/19 08:12:29;;;;;;;2.28;1.27;;;;;16.20;94149.00;;;;7382877;19;20164;-80
2023/09/19 08:15:05;;;;;;;3.05;1.33;;;;;16.00;94137.00;;;;7382053;19;20635;-77
2023/09/19 08:17:41;;;;;;;3.38;1.30;;;;;15.80;94147.00;;;;7384601;19;20133;-77
2023/09/19 08:20:17;;;;;;;1.88;1.13;;;;;15.80;94152.00;;;;7380305;19;20137;-78
2023/09/19 08:22:54;;;;;;;5.72;1.88;;;;;15.50;94144.00;;;;7381453;19;20132;-77
2023/09/19 08:25:29;;;;;;;3.30;1.40;;;;;15.70;94147.00;;;;7381578;19;20610;-76
2023/09/19 08:27:59;;;;;;;4.00;1.52;;;;;15.50;94166.00;;;;7379979;19;20155;-75
2023/09/19 08:30:37;;;;;;;4.05;1.48;;;;;15.50;94152.00;;;;7377708;19;20220;-77
2023/09/19 08:33:05;;;;;;;1.80;1.38;;;;;15.70;94146.00;;;;7383291;19;20152;-77
2023/09/19 08:35:41;;;;;;;2.67;1.45;;;;;16.00;94155.00;;;;7380153;19;20203;-74
2023/09/19 08:38:10;;;;;;;2.30;1.35;;;;;16.20;94154.00;;;;7383724;19;20526;-76
2023/09/19 08:40:44;;;;;;;3.15;1.30;;;;;16.00;94152.00;;;;7384164;19;20155;-79
2023/09/19 08:43:13;;;;;;;2.00;1.20;;;;;16.00;94156.00;;;;7384333;19;20145;-79
2023/09/19 08:45:48;;;;;;;1.33;1.23;;;;;15.90;94173.00;;;;7384817;19;20180;-77
2023/09/19 08:48:26;;;;;;;1.98;1.05;;;;;16.20;94155.00;;;;7382859;19;20206;-76
2023/09/19 08:51:05;;;;;;;1.92;1.27;;;;;16.00;94168.00;;;;7385363;19;20143;-79
2023/09/19 08:53:54;;;;;;;2.88;1.60;;;;;15.90;94181.00;;;;7379170;19;20489;-78
2023/09/19 08:56:32;;;;;;;2.60;1.38;;;;;15.90;94184.00;;;;7382571;19;20156;-77
2023/09/19 08:59:08;;;;;;;3.55;1.27;;;;;15.80;94186.00;;;;7382712;19;20144;-76
2023/09/19 09:01:43;;;;;;;1.58;1.23;;;;;15.80;94190.00;;;;7383579;19;20186;-76
2023/09/19 09:04:26;;;;;;;2.63;1.35;;;;;15.70;94189.00;;;;7380139;19;20200;-77
2023/09/19 09:07:10;;;;;;;2.38;1.40;;;;;15.90;94195.00;;;;7386382;19;20140;-79
2023/09/19 09:09:42;;;;;;;3.53;1.65;;;;;15.90;94194.00;;;;7386685;19;20132;-76
2023/09/19 09:12:16;;;;;;;4.63;1.30;;;;;15.90;94195.00;;;;7384869;19;20125;-77
2023/09/19 09:14:52;;;;;;;4.13;1.40;;;;;16.20;94182.00;;;;7391869;19;20148;-79
2023/09/19 09:17:29;;;;;;;3.60;1.40;;;;;16.20;94190.00;;;;7386644;19;21031;-79
2023/09/19 09:20:09;;;;;;;2.13;1.30;;;;;16.10;94194.00;;;;7386665;19;20573;-79
2023/09/19 09:22:55;;;;;;;4.10;1.77;;;;;16.00;94197.00;;;;7395980;19;20470;-80
2023/09/19 09:26:02;;;;;;;6.35;1.55;;;;;16.10;94190.00;;;;7391399;19;20149;-78
2023/09/19 09:28:47;;;;;;;6.10;2.60;;;;;16.10;94194.00;;;;7392111;19;20197;-81
2023/09/19 09:31:27;;;;;;;3.75;2.00;;;;;16.40;94190.00;;;;7392037;19;20144;-79
2023/09/19 09:34:02;;;;;;;2.05;1.42;;;;;16.30;94197.00;;;;7394597;19;20137;-79
2023/09/19 09:36:41;;;;;;;3.30;1.48;;;;;16.10;94191.00;;;;7399718;19;20132;-80
2023/09/19 09:39:31;;;;;;;2.50;1.60;;;;;16.10;94196.00;;;;7394796;19;20151;-78
2023/09/19 09:42:06;;;;;;;6.38;1.58;;;;;16.00;94201.00;;;;7397363;19;20156;-79
2023/09/19 09:44:35;;;;;;;2.15;1.30;;;;;16.10;94189.00;;;;7385905;19;20148;-79
2023/09/19 09:47:27;;;;;;;5.20;1.50;;;;;16.00;94196.00;;;;7385067;19;20136;-77
2023/09/19 09:50:06;;;;;;;3.03;1.50;;;;;16.50;94196.00;;;;7389293;19;20152;-79
2023/09/19 09:52:47;;;;;;;4.03;1.45;;;;;16.30;94188.00;;;;7389699;19;20152;-79
2023/09/19 09:55:15;;;;;;;2.03;1.40;;;;;16.10;94186.00;;;;7386073;19;20147;-79
2023/09/19 09:58:18;;;;;;;2.63;1.40;;;;;16.10;94183.00;;;;7390993;19;20733;-80
2023/09/19 10:01:02;;;;;;;1.67;1.08;;;;;16.40;94192.00;;;;7392098;19;20148;-79
2023/09/19 10:03:49;;;;;;;2.00;1.20;;;;;17.00;94196.00;;;;7389016;19;20200;-76
2023/09/19 10:06:25;;;;;;;5.45;1.48;;;;;17.60;94189.00;;;;7392083;19;20160;-78
2023/09/19 10:09:13;;;;;;;2.92;1.52;;;;;17.90;94168.00;;;;7393812;19;20149;-79
2023/09/19 10:12:02;;;;;;;2.35;1.35;;;;;17.50;94194.00;;;;7389761;19;20144;-77
2023/09/19 10:14:42;;;;;;;2.40;1.15;;;;;17.30;94167.00;;;;7386778;19;20149;-76
2023/09/19 10:17:15;;;;;;;4.18;1.60;;;;;17.80;94150.00;;;;7386155;19;20232;-76
2023/09/19 10:19:57;;;;;;;1.98;1.30;;;;;17.90;94171.00;;;;7389344;19;20199;-75
2023/09/19 10:22:35;;;;;;;2.20;1.23;;;;;18.20;94162.00;;;;7383421;19;20149;-75
2023/09/19 10:25:08;;;;;;;3.92;1.40;;;;;18.40;94166.00;;;;7386097;19;21135;-75
2023/09/19 10:27:43;;;;;;;3.55;1.50;;;;;18.70;94168.00;;;;7386404;19;20520;-76
2023/09/19 10:30:12;;;;;;;2.97;1.10;;;;;18.00;94148.00;;;;7381846;19;20117;-78
2023/09/19 10:33:00;;;;;;;3.63;1.10;;;;;17.90;94162.00;;;;7385870;19;20635;-77
2023/09/19 10:35:40;;;;;;;1.20;1.00;;;;;18.90;94165.00;;;;7392986;19;20129;-76
2023/09/19 10:38:11;;;;;;;3.90;1.45;;;;;18.80;94149.00;;;;7388356;19;20136;-77
2023/09/19 10:40:52;;;;;;;3.47;1.63;;;;;19.50;94145.00;;;;7391191;19;20152;-78
2023/09/19 10:43:24;;;;;;;2.58;1.23;;;;;19.30;94147.00;;;;7389787;19;20224;-81
2023/09/19 10:46:12;;;;;;;5.80;1.20;;;;;19.30;94153.00;;;;7389621;19;20605;-77
2023/09/19 10:48:50;;;;;;;1.70;1.27;;;;;19.00;94183.00;;;;7392740;19;20148;-76
2023/09/19 10:51:28;;;;;;;3.28;1.33;;;;;18.30;94180.00;;;;7385519;19;20195;-77
2023/09/19 10:54:15;;;;;;;4.82;1.30;;;;;18.30;94164.00;;;;7387760;19;21052;-76
2023/09/19 10:56:52;;;;;;;2.33;1.30;;;;;18.40;94157.00;;;;7387422;19;20142;-77
2023/09/19 10:59:34;;;;;;;1.88;1.27;;;;;18.70;94177.00;;;;7389836;19;20629;-75
2023/09/19 11:02:18;;;;;;;2.78;1.33;;;;;18.40;94187.00;;;;7392820;19;20159;-77
2023/09/19 11:05:14;;;;;;;2.00;1.33;;;;;18.40;94164.00;;;;7398143;19;20567;-76
2023/09/19 11:08:03;;;;;;;3.55;1.50;;;;;18.20;94171.00;;;;7401195;19;20159;-76
2023/09/19 11:10:51;;;;;;;2.42;1.27;;;;;17.90;94181.00;;;;7400007;19;20479;-77
2023/09/19 11:13:37;;;;;;;2.45;1.48;;;;;18.00;94158.00;;;;7403890;19;20173;-76
2023/09/19 11:16:19;;;;;;;4.65;1.10;;;;;18.40;94184.00;;;;7403658;19;20620;-76
2023/09/19 11:18:54;;;;;;;1.95;1.10;;;;;18.40;94186.00;;;;7404698;19;20141;-75
2023/09/19 11:21:41;;;;;;;2.20;1.17;;;;;18.10;94179.00;;;;7401730;19;20161;-76
2023/09/19 11:24:25;;;;;;;2.95;1.20;;;;;18.20;94172.00;;;;7399559;19;20616;-76
2023/09/19 11:27:13;;;;;;;2.58;1.33;;;;;18.20;94146.00;;;;7398367;19;20133;-77
2023/09/19 11:30:08;;;;;;;3.25;1.40;;;;;19.50;94177.00;;;;7399612;19;20157;-75
2023/09/19 11:33:14;;;;;;;3.60;1.30;;;;;19.20;94173.00;;;;7399889;19;20153;-77
2023/09/19 11:36:09;;;;;;;2.35;1.38;;;;;18.60;94176.00;;;;7402003;19;20608;-77
2023/09/19 11:38:50;;;;;;;7.65;1.80;;;;;18.40;94168.00;;;;7397279;19;20128;-76
2023/09/19 11:41:25;;;;;;;2.53;1.38;;;;;18.10;94178.00;;;;7398632;19;20136;-76
2023/09/19 11:44:12;;;;;;;5.25;1.35;;;;;19.60;94129.00;;;;7399156;19;20140;-76
2023/09/19 11:46:56;;;;;;;2.78;1.38;;;;;20.90;94155.00;;;;7392686;19;20166;-75
2023/09/19 11:49:33;;;;;;;2.72;1.23;;;;;20.60;94161.00;;;;7398314;19;20150;-75
2023/09/19 11:52:05;;;;;;;2.65;1.40;;;;;21.00;94125.00;;;;7394234;19;20208;-75
2023/09/19 11:54:42;;;;;;;5.35;1.52;;;;;20.60;94155.00;;;;7392742;19;20165;-76
2023/09/19 11:57:11;;;;;;;2.00;1.10;;;;;20.60;94137.00;;;;7392778;19;20153;-76
2023/09/19 11:59:40;;;;;;;2.03;1.10;;;;;20.90;94116.00;;;;7399347;19;20184;-76
2023/09/19 12:02:37;;;;;;;2.50;1.20;;;;;22.10;94109.00;;;;7395903;19;20172;-76
2023/09/19 12:05:12;;;;;;;3.97;1.35;;;;;22.00;94111.00;;;;7395155;19;20169;-76
2023/09/19 12:07:47;;;;;;;2.97;1.42;;;;;21.20;94156.00;;;;7400634;19;20127;-77
2023/09/19 12:10:21;;;;;;;3.88;1.30;;;;;20.10;94136.00;;;;7395211;19;20588;-75
2023/09/19 12:12:56;;;;;;;2.92;1.27;;;;;19.90;94141.00;;;;7394670;19;20159;-75
2023/09/19 12:15:33;;;;;;;2.03;1.27;;;;;19.90;94108.00;;;;7399376;19;20789;-75
2023/09/19 12:18:08;;;;;;;1.70;1.25;;;;;20.80;94142.00;;;;7396687;19;20165;-74
2023/09/19 12:20:46;;;;;;;1.27;1.15;;;;;20.60;94118.00;;;;7398482;19;20129;-75
2023/09/19 12:23:20;;;;;;;2.55;1.25;;;;;21.10;94108.00;;;;7395359;19;20203;-73
2023/09/19 12:25:53;;;;;;;2.60;1.33;;;;;22.10;94094.00;;;;7395359;19;20137;-73
2023/09/19 12:28:30;;;;;;;1.77;1.20;;;;;22.30;94092.00;;;;7393456;19;20608;-76
2023/09/19 12:31:08;;;;;;;2.03;1.27;;;;;22.00;94100.00;;;;7396684;19;20473;-75
2023/09/19 12:33:42;;;;;;;1.77;1.30;;;;;21.90;94108.00;;;;7400049;19;20136;-75
2023/09/19 12:36:28;;;;;;;3.17;1.15;;;;;21.70;94110.00;;;;7396612;19;20212;-74
2023/09/19 12:39:08;;;;;;;3.85;1.60;;;;;22.50;94095.00;;;;7397565;19;20543;-74
2023/09/19 12:41:38;;;;;;;1.45;1.20;;;;;22.80;94095.00;;;;7394291;19;20143;-76
2023/09/19 12:44:12;;;;;;;5.03;1.50;;;;;23.00;94076.00;;;;7396400;19;20173;-75
2023/09/19 12:46:42;;;;;;;1.65;1.20;;;;;23.80;94073.00;;;;7396254;19;20161;-75
2023/09/19 12:49:20;;;;;;;2.28;1.00;;;;;23.40;94076.00;;;;7397452;19;20141;-75
2023/09/19 12:51:58;;;;;;;2.50;1.30;;;;;22.00;94081.00;;;;7396801;19;20618;-76
2023/09/19 12:54:43;;;;;;;1.95;1.20;;;;;22.00;94102.00;;;;7396640;19;20599;-76
2023/09/19 12:57:25;;;;;;;3.67;1.30;;;;;22.20;94119.00;;;;7392293;19;20144;-74
2023/09/19 13:00:10;;;;;;;3.63;1.15;;;;;20.60;94122.00;;;;7391154;19;20143;-75
2023/09/19 13:03:15;;;;;;;2.55;1.27;;;;;20.50;94088.00;;;;7394510;19;20152;-75
2023/09/19 13:06:00;;;;;;;1.80;1.30;;;;;21.90;94089.00;;;;7393457;19;20674;-75